sensor_id;sensor_type;location;lat;lon;timestamp;P1;durP1;ratioP1;P2;durP2;ratioP2
79574;SDS011;69044;48.198;11.468;2024-01-15T00:00:21;6.90;;;2.38;;
79574;SDS011;69044;48.198;11.468;2024-01-15T00:02:48;9.43;;;3.53;;
79574;SDS011;69044;48.198;11.468;2024-01-15T00:05:15;4.38;;;2.58;;
79574;SDS011;69044;48.198;11.468;2024-01-15T00:07:42;7.90;;;3.28;;
79574;SDS011;69044;48.198;11.468;2024-01-15T00:10:10;5.55;;;2.78;;
79574;SDS011;69044;48.198;11.468;2024-01-15T00:12:37;7.22;;;3.08;;
79574;SDS011;69044;48.198;11.468;2024-01-15T00:15:04;9.77;;;3.28;;
79574;SDS011;69044;48.198;11.468;2024-01-15T00:17:32;5.72;;;2.75;;
79574;SDS011;69044;48.198;11.468;2024-01-15T00:19:59;7.18;;;3.42;;
79574;SDS011;69044;48.198;11.468;2024-01-15T00:22:26;4.70;;;2.80;;
79574;SDS011;69044;48.198;11.468;2024-01-15T00:24:55;8.77;;;4.15;;
79574;SDS011;69044;48.198;11.468;2024-01-15T00:27:22;5.70;;;2.55;;
79574;SDS011;69044;48.198;11.468;2024-01-15T00:29:49;9.68;;;4.05;;
79574;SDS011;69044;48.198;11.468;2024-01-15T00:32:17;9.02;;;2.58;;
79574;SDS011;69044;48.198;11.468;2024-01-15T00:34:45;5.38;;;2.80;;
79574;SDS011;69044;48.198;11.468;2024-01-15T00:37:12;6.13;;;3.10;;
79574;SDS011;69044;48.198;11.468;2024-01-15T00:39:40;6.38;;;3.20;;
79574;SDS011;69044;48.198;11.468;2024-01-15T00:42:09;8.60;;;3.88;;
79574;SDS011;69044;48.198;11.468;2024-01-15T00:44:36;8.75;;;3.78;;
79574;SDS011;69044;48.198;11.468;2024-01-15T00:47:03;9.35;;;4.50;;
79574;SDS011;69044;48.198;11.468;2024-01-15T00:49:31;10.63;;;4.90;;
79574;SDS011;69044;48.198;11.468;2024-01-15T00:51:58;12.63;;;4.07;;
79574;SDS011;69044;48.198;11.468;2024-01-15T00:54:26;10.93;;;4.00;;
79574;SDS011;69044;48.198;11.468;2024-01-15T00:56:53;11.93;;;4.78;;
79574;SDS011;69044;48.198;11.468;2024-01-15T00:59:22;13.40;;;4.93;;
79574;SDS011;69044;48.198;11.468;2024-01-15T01:01:49;11.10;;;4.65;;
79574;SDS011;69044;48.198;11.468;2024-01-15T01:04:17;10.68;;;5.13;;
79574;SDS011;69044;48.198;11.468;2024-01-15T01:06:44;8.68;;;4.28;;
79574;SDS011;69044;48.198;11.468;2024-01-15T01:09:11;13.13;;;5.47;;
79574;SDS011;69044;48.198;11.468;2024-01-15T01:11:38;11.77;;;4.57;;
79574;SDS011;69044;48.198;11.468;2024-01-15T01:14:05;10.50;;;4.88;;
79574;SDS011;69044;48.198;11.468;2024-01-15T01:16:34;9.40;;;4.10;;
79574;SDS011;69044;48.198;11.468;2024-01-15T01:19:04;8.98;;;4.70;;
79574;SDS011;69044;48.198;11.468;2024-01-15T01:21:32;11.98;;;5.05;;
79574;SDS011;69044;48.198;11.468;2024-01-15T01:24:00;10.77;;;4.47;;
79574;SDS011;69044;48.198;11.468;2024-01-15T01:26:27;7.75;;;3.30;;
79574;SDS011;69044;48.198;11.468;2024-01-15T01:28:54;8.52;;;3.40;;
79574;SDS011;69044;48.198;11.468;2024-01-15T01:31:21;10.15;;;4.32;;
79574;SDS011;69044;48.198;11.468;2024-01-15T01:33:50;7.05;;;3.90;;
79574;SDS011;69044;48.198;11.468;2024-01-15T01:36:17;12.13;;;4.28;;
79574;SDS011;69044;48.198;11.468;2024-01-15T01:38:44;10.10;;;3.90;;
79574;SDS011;69044;48.198;11.468;2024-01-15T01:41:11;7.78;;;3.30;;
79574;SDS011;69044;48.198;11.468;2024-01-15T01:43:38;8.38;;;3.80;;
79574;SDS011;69044;48.198;11.468;2024-01-15T01:46:05;9.60;;;4.38;;
79574;SDS011;69044;48.198;11.468;2024-01-15T01:48:33;6.85;;;3.30;;
79574;SDS011;69044;48.198;11.468;2024-01-15T01:51:02;7.25;;;2.92;;
79574;SDS011;69044;48.198;11.468;2024-01-15T01:53:30;7.03;;;3.45;;
79574;SDS011;69044;48.198;11.468;2024-01-15T01:55:58;7.47;;;3.53;;
79574;SDS011;69044;48.198;11.468;2024-01-15T01:58:25;6.35;;;3.35;;
79574;SDS011;69044;48.198;11.468;2024-01-15T02:00:53;8.18;;;2.85;;
79574;SDS011;69044;48.198;11.468;2024-01-15T02:03:20;5.22;;;2.63;;
79574;SDS011;69044;48.198;11.468;2024-01-15T02:05:47;9.18;;;3.17;;
79574;SDS011;69044;48.198;11.468;2024-01-15T02:08:17;6.85;;;3.00;;
79574;SDS011;69044;48.198;11.468;2024-01-15T02:10:44;8.90;;;4.47;;
79574;SDS011;69044;48.198;11.468;2024-01-15T02:13:11;10.18;;;3.10;;
79574;SDS011;69044;48.198;11.468;2024-01-15T02:15:38;8.90;;;4.15;;
79574;SDS011;69044;48.198;11.468;2024-01-15T02:18:06;8.25;;;3.67;;
79574;SDS011;69044;48.198;11.468;2024-01-15T02:20:33;10.10;;;4.45;;
79574;SDS011;69044;48.198;11.468;2024-01-15T02:23:07;10.60;;;3.92;;
79574;SDS011;69044;48.198;11.468;2024-01-15T02:25:36;7.13;;;3.10;;
79574;SDS011;69044;48.198;11.468;2024-01-15T02:28:04;11.15;;;3.85;;
79574;SDS011;69044;48.198;11.468;2024-01-15T02:30:32;8.85;;;4.05;;
79574;SDS011;69044;48.198;11.468;2024-01-15T02:33:01;7.50;;;3.20;;
79574;SDS011;69044;48.198;11.468;2024-01-15T02:35:29;10.60;;;3.42;;
79574;SDS011;69044;48.198;11.468;2024-01-15T02:37:56;9.52;;;3.97;;
79574;SDS011;69044;48.198;11.468;2024-01-15T02:40:24;8.68;;;3.78;;
79574;SDS011;69044;48.198;11.468;2024-01-15T02:42:51;9.55;;;4.85;;
79574;SDS011;69044;48.198;11.468;2024-01-15T02:45:19;8.07;;;3.15;;
79574;SDS011;69044;48.198;11.468;2024-01-15T02:47:46;9.55;;;3.60;;
79574;SDS011;69044;48.198;11.468;2024-01-15T02:50:13;8.07;;;3.60;;
79574;SDS011;69044;48.198;11.468;2024-01-15T02:52:41;9.73;;;3.58;;
79574;SDS011;69044;48.198;11.468;2024-01-15T02:55:08;7.35;;;3.58;;
79574;SDS011;69044;48.198;11.468;2024-01-15T02:57:37;8.82;;;3.88;;
79574;SDS011;69044;48.198;11.468;2024-01-15T03:00:04;9.95;;;3.78;;
79574;SDS011;69044;48.198;11.468;2024-01-15T03:02:32;7.78;;;3.47;;
79574;SDS011;69044;48.198;11.468;2024-01-15T03:05:00;8.65;;;3.78;;
79574;SDS011;69044;48.198;11.468;2024-01-15T03:07:28;6.72;;;3.10;;
79574;SDS011;69044;48.198;11.468;2024-01-15T03:09:55;8.45;;;3.33;;
79574;SDS011;69044;48.198;11.468;2024-01-15T03:12:22;7.50;;;2.70;;
79574;SDS011;69044;48.198;11.468;2024-01-15T03:14:50;8.45;;;3.08;;
79574;SDS011;69044;48.198;11.468;2024-01-15T03:17:18;10.52;;;3.90;;
79574;SDS011;69044;48.198;11.468;2024-01-15T03:19:45;8.18;;;3.85;;
79574;SDS011;69044;48.198;11.468;2024-01-15T03:22:12;8.60;;;3.53;;
79574;SDS011;69044;48.198;11.468;2024-01-15T03:24:39;8.07;;;3.22;;
79574;SDS011;69044;48.198;11.468;2024-01-15T03:27:06;9.23;;;3.88;;
79574;SDS011;69044;48.198;11.468;2024-01-15T03:29:33;7.85;;;3.38;;
79574;SDS011;69044;48.198;11.468;2024-01-15T03:32:02;9.70;;;3.65;;
79574;SDS011;69044;48.198;11.468;2024-01-15T03:34:29;9.15;;;3.45;;
79574;SDS011;69044;48.198;11.468;2024-01-15T03:36:56;8.57;;;3.47;;
79574;SDS011;69044;48.198;11.468;2024-01-15T03:39:24;8.00;;;2.95;;
79574;SDS011;69044;48.198;11.468;2024-01-15T03:41:52;6.70;;;3.17;;
79574;SDS011;69044;48.198;11.468;2024-01-15T03:44:19;7.72;;;3.35;;
79574;SDS011;69044;48.198;11.468;2024-01-15T03:46:46;5.90;;;2.33;;
79574;SDS011;69044;48.198;11.468;2024-01-15T03:49:15;8.02;;;3.15;;
79574;SDS011;69044;48.198;11.468;2024-01-15T03:51:42;6.57;;;3.47;;
79574;SDS011;69044;48.198;11.468;2024-01-15T03:54:09;8.15;;;3.08;;
79574;SDS011;69044;48.198;11.468;2024-01-15T03:56:36;7.50;;;3.35;;
79574;SDS011;69044;48.198;11.468;2024-01-15T03:59:03;6.93;;;3.08;;
79574;SDS011;69044;48.198;11.468;2024-01-15T04:01:30;9.48;;;3.38;;
79574;SDS011;69044;48.198;11.468;2024-01-15T04:03:57;6.35;;;3.00;;
79574;SDS011;69044;48.198;11.468;2024-01-15T04:06:26;8.35;;;3.45;;
79574;SDS011;69044;48.198;11.468;2024-01-15T04:08:53;7.70;;;3.03;;
79574;SDS011;69044;48.198;11.468;2024-01-15T04:11:20;7.88;;;3.30;;
79574;SDS011;69044;48.198;11.468;2024-01-15T04:13:48;9.85;;;3.65;;
79574;SDS011;69044;48.198;11.468;2024-01-15T04:16:15;9.23;;;3.28;;
79574;SDS011;69044;48.198;11.468;2024-01-15T04:18:42;7.13;;;3.45;;
79574;SDS011;69044;48.198;11.468;2024-01-15T04:21:09;10.27;;;3.22;;
79574;SDS011;69044;48.198;11.468;2024-01-15T04:23:37;9.25;;;3.53;;
79574;SDS011;69044;48.198;11.468;2024-01-15T04:26:05;9.55;;;3.97;;
79574;SDS011;69044;48.198;11.468;2024-01-15T04:28:32;6.75;;;3.42;;
79574;SDS011;69044;48.198;11.468;2024-01-15T04:31:00;8.65;;;4.00;;
79574;SDS011;69044;48.198;11.468;2024-01-15T04:33:27;9.73;;;3.97;;
79574;SDS011;69044;48.198;11.468;2024-01-15T04:35:54;6.57;;;2.60;;
79574;SDS011;69044;48.198;11.468;2024-01-15T04:38:21;7.35;;;2.33;;
79574;SDS011;69044;48.198;11.468;2024-01-15T04:40:49;7.43;;;3.03;;
79574;SDS011;69044;48.198;11.468;2024-01-15T04:43:16;6.25;;;2.67;;
79574;SDS011;69044;48.198;11.468;2024-01-15T04:45:44;5.65;;;3.05;;
79574;SDS011;69044;48.198;11.468;2024-01-15T04:48:11;7.72;;;2.67;;
79574;SDS011;69044;48.198;11.468;2024-01-15T04:50:38;7.13;;;3.20;;
79574;SDS011;69044;48.198;11.468;2024-01-15T04:53:05;8.98;;;3.60;;
79574;SDS011;69044;48.198;11.468;2024-01-15T04:55:32;7.25;;;3.50;;
79574;SDS011;69044;48.198;11.468;2024-01-15T04:58:01;8.60;;;3.90;;
79574;SDS011;69044;48.198;11.468;2024-01-15T05:00:28;7.85;;;3.60;;
79574;SDS011;69044;48.198;11.468;2024-01-15T05:02:55;4.97;;;2.63;;
79574;SDS011;69044;48.198;11.468;2024-01-15T05:05:22;7.60;;;2.88;;
79574;SDS011;69044;48.198;11.468;2024-01-15T05:07:49;7.03;;;3.45;;
79574;SDS011;69044;48.198;11.468;2024-01-15T05:10:16;7.60;;;3.85;;
79574;SDS011;69044;48.198;11.468;2024-01-15T05:12:43;6.75;;;2.75;;
79574;SDS011;69044;48.198;11.468;2024-01-15T05:15:12;8.73;;;3.10;;
79574;SDS011;69044;48.198;11.468;2024-01-15T05:17:39;7.47;;;2.97;;
79574;SDS011;69044;48.198;11.468;2024-01-15T05:20:06;7.57;;;3.30;;
79574;SDS011;69044;48.198;11.468;2024-01-15T05:22:34;8.57;;;3.47;;
79574;SDS011;69044;48.198;11.468;2024-01-15T05:25:02;6.75;;;3.05;;
79574;SDS011;69044;48.198;11.468;2024-01-15T05:27:29;6.05;;;2.67;;
79574;SDS011;69044;48.198;11.468;2024-01-15T05:29:56;8.70;;;2.80;;
79574;SDS011;69044;48.198;11.468;2024-01-15T05:32:24;6.65;;;2.60;;
79574;SDS011;69044;48.198;11.468;2024-01-15T05:34:52;6.93;;;3.03;;
79574;SDS011;69044;48.198;11.468;2024-01-15T05:37:19;6.30;;;2.78;;
79574;SDS011;69044;48.198;11.468;2024-01-15T05:39:46;10.23;;;3.17;;
79574;SDS011;69044;48.198;11.468;2024-01-15T05:42:13;9.40;;;3.20;;
79574;SDS011;69044;48.198;11.468;2024-01-15T05:44:40;6.93;;;2.92;;
79574;SDS011;69044;48.198;11.468;2024-01-15T05:47:07;6.68;;;3.20;;
79574;SDS011;69044;48.198;11.468;2024-01-15T05:49:36;9.20;;;2.60;;
79574;SDS011;69044;48.198;11.468;2024-01-15T05:52:03;7.25;;;3.05;;
79574;SDS011;69044;48.198;11.468;2024-01-15T05:54:30;5.00;;;2.70;;
79574;SDS011;69044;48.198;11.468;2024-01-15T05:56:58;5.50;;;2.72;;
79574;SDS011;69044;48.198;11.468;2024-01-15T05:59:25;6.22;;;3.00;;
79574;SDS011;69044;48.198;11.468;2024-01-15T06:01:52;7.47;;;3.83;;
79574;SDS011;69044;48.198;11.468;2024-01-15T06:04:19;7.40;;;2.70;;
79574;SDS011;69044;48.198;11.468;2024-01-15T06:06:47;7.32;;;2.47;;
79574;SDS011;69044;48.198;11.468;2024-01-15T06:09:15;8.32;;;3.03;;
79574;SDS011;69044;48.198;11.468;2024-01-15T06:11:42;5.88;;;2.75;;
79574;SDS011;69044;48.198;11.468;2024-01-15T06:14:09;6.85;;;2.55;;
79574;SDS011;69044;48.198;11.468;2024-01-15T06:16:36;6.45;;;2.58;;
79574;SDS011;69044;48.198;11.468;2024-01-15T06:19:03;3.78;;;2.08;;
79574;SDS011;69044;48.198;11.468;2024-01-15T06:21:30;4.22;;;2.65;;
79574;SDS011;69044;48.198;11.468;2024-01-15T06:23:59;5.70;;;2.25;;
79574;SDS011;69044;48.198;11.468;2024-01-15T06:26:26;6.22;;;2.25;;
79574;SDS011;69044;48.198;11.468;2024-01-15T06:28:53;5.93;;;2.80;;
79574;SDS011;69044;48.198;11.468;2024-01-15T06:31:20;6.05;;;2.75;;
79574;SDS011;69044;48.198;11.468;2024-01-15T06:33:47;5.60;;;2.58;;
79574;SDS011;69044;48.198;11.468;2024-01-15T06:36:14;7.13;;;3.13;;
79574;SDS011;69044;48.198;11.468;2024-01-15T06:38:43;4.80;;;2.42;;
79574;SDS011;69044;48.198;11.468;2024-01-15T06:41:11;7.45;;;2.30;;
79574;SDS011;69044;48.198;11.468;2024-01-15T06:43:38;4.25;;;2.10;;
79574;SDS011;69044;48.198;11.468;2024-01-15T06:46:05;6.03;;;2.30;;
79574;SDS011;69044;48.198;11.468;2024-01-15T06:48:33;3.92;;;2.88;;
79574;SDS011;69044;48.198;11.468;2024-01-15T06:51:00;6.82;;;3.08;;
79574;SDS011;69044;48.198;11.468;2024-01-15T06:53:27;4.72;;;1.95;;
79574;SDS011;69044;48.198;11.468;2024-01-15T06:55:54;7.60;;;3.53;;
79574;SDS011;69044;48.198;11.468;2024-01-15T06:58:22;7.85;;;2.85;;
79574;SDS011;69044;48.198;11.468;2024-01-15T07:00:49;6.75;;;2.90;;
79574;SDS011;69044;48.198;11.468;2024-01-15T07:03:17;4.70;;;2.28;;
79574;SDS011;69044;48.198;11.468;2024-01-15T07:05:44;6.00;;;2.78;;
79574;SDS011;69044;48.198;11.468;2024-01-15T07:08:11;6.28;;;2.70;;
79574;SDS011;69044;48.198;11.468;2024-01-15T07:10:38;6.72;;;2.53;;
79574;SDS011;69044;48.198;11.468;2024-01-15T07:13:05;5.07;;;2.25;;
79574;SDS011;69044;48.198;11.468;2024-01-15T07:15:34;9.95;;;3.15;;
79574;SDS011;69044;48.198;11.468;2024-01-15T07:18:02;5.35;;;2.53;;
79574;SDS011;69044;48.198;11.468;2024-01-15T07:20:29;6.57;;;2.70;;
79574;SDS011;69044;48.198;11.468;2024-01-15T07:22:56;7.13;;;2.70;;
79574;SDS011;69044;48.198;11.468;2024-01-15T07:25:23;8.93;;;3.60;;
79574;SDS011;69044;48.198;11.468;2024-01-15T07:27:51;5.65;;;2.58;;
79574;SDS011;69044;48.198;11.468;2024-01-15T07:30:19;7.40;;;2.30;;
79574;SDS011;69044;48.198;11.468;2024-01-15T07:32:49;6.72;;;3.10;;
79574;SDS011;69044;48.198;11.468;2024-01-15T07:35:16;5.95;;;2.72;;
79574;SDS011;69044;48.198;11.468;2024-01-15T07:37:43;6.30;;;2.60;;
79574;SDS011;69044;48.198;11.468;2024-01-15T07:40:10;5.85;;;2.38;;
79574;SDS011;69044;48.198;11.468;2024-01-15T07:42:38;6.88;;;3.03;;
79574;SDS011;69044;48.198;11.468;2024-01-15T07:45:05;8.40;;;3.15;;
79574;SDS011;69044;48.198;11.468;2024-01-15T07:47:32;7.82;;;2.95;;
79574;SDS011;69044;48.198;11.468;2024-01-15T07:50:01;7.03;;;2.90;;
79574;SDS011;69044;48.198;11.468;2024-01-15T07:52:28;6.65;;;2.90;;
79574;SDS011;69044;48.198;11.468;2024-01-15T07:54:56;6.78;;;3.03;;
79574;SDS011;69044;48.198;11.468;2024-01-15T07:57:25;7.47;;;2.95;;
79574;SDS011;69044;48.198;11.468;2024-01-15T07:59:52;6.93;;;2.47;;
79574;SDS011;69044;48.198;11.468;2024-01-15T08:02:19;5.55;;;2.42;;
79574;SDS011;69044;48.198;11.468;2024-01-15T08:04:47;6.18;;;2.47;;
79574;SDS011;69044;48.198;11.468;2024-01-15T08:07:16;7.50;;;3.53;;
79574;SDS011;69044;48.198;11.468;2024-01-15T08:09:43;7.40;;;2.33;;
79574;SDS011;69044;48.198;11.468;2024-01-15T08:12:12;5.93;;;2.95;;
79574;SDS011;69044;48.198;11.468;2024-01-15T08:14:39;10.65;;;3.50;;
79574;SDS011;69044;48.198;11.468;2024-01-15T08:17:06;7.38;;;2.78;;
79574;SDS011;69044;48.198;11.468;2024-01-15T08:19:34;6.72;;;3.13;;
79574;SDS011;69044;48.198;11.468;2024-01-15T08:22:01;4.57;;;2.50;;
79574;SDS011;69044;48.198;11.468;2024-01-15T08:24:29;5.30;;;2.50;;
79574;SDS011;69044;48.198;11.468;2024-01-15T08:29:24;5.90;;;2.75;;
79574;SDS011;69044;48.198;11.468;2024-01-15T08:31:51;5.03;;;2.70;;
79574;SDS011;69044;48.198;11.468;2024-01-15T08:34:18;6.93;;;2.88;;
79574;SDS011;69044;48.198;11.468;2024-01-15T08:36:45;10.23;;;4.03;;
79574;SDS011;69044;48.198;11.468;2024-01-15T08:39:13;11.82;;;3.83;;
79574;SDS011;69044;48.198;11.468;2024-01-15T08:41:41;6.15;;;3.13;;
79574;SDS011;69044;48.198;11.468;2024-01-15T08:44:08;7.07;;;3.20;;
79574;SDS011;69044;48.198;11.468;2024-01-15T08:46:35;5.43;;;3.05;;
79574;SDS011;69044;48.198;11.468;2024-01-15T08:49:03;5.65;;;2.97;;
79574;SDS011;69044;48.198;11.468;2024-01-15T08:51:31;6.43;;;3.28;;
79574;SDS011;69044;48.198;11.468;2024-01-15T08:53:58;5.38;;;2.30;;
79574;SDS011;69044;48.198;11.468;2024-01-15T08:56:25;6.03;;;3.10;;
79574;SDS011;69044;48.198;11.468;2024-01-15T08:58:54;6.85;;;3.25;;
79574;SDS011;69044;48.198;11.468;2024-01-15T09:01:21;5.20;;;2.30;;
79574;SDS011;69044;48.198;11.468;2024-01-15T09:03:49;6.15;;;2.80;;
79574;SDS011;69044;48.198;11.468;2024-01-15T09:06:16;8.73;;;2.75;;
79574;SDS011;69044;48.198;11.468;2024-01-15T09:08:44;6.47;;;2.80;;
79574;SDS011;69044;48.198;11.468;2024-01-15T09:11:11;7.63;;;3.25;;
79574;SDS011;69044;48.198;11.468;2024-01-15T09:13:38;11.55;;;3.28;;
79574;SDS011;69044;48.198;11.468;2024-01-15T09:16:07;5.70;;;3.10;;
79574;SDS011;69044;48.198;11.468;2024-01-15T09:18:34;6.00;;;2.92;;
79574;SDS011;69044;48.198;11.468;2024-01-15T09:21:01;5.28;;;2.45;;
79574;SDS011;69044;48.198;11.468;2024-01-15T09:23:30;7.40;;;2.67;;
79574;SDS011;69044;48.198;11.468;2024-01-15T09:25:58;6.07;;;2.78;;
79574;SDS011;69044;48.198;11.468;2024-01-15T09:28:25;7.07;;;3.05;;
79574;SDS011;69044;48.198;11.468;2024-01-15T09:30:52;7.90;;;3.65;;
79574;SDS011;69044;48.198;11.468;2024-01-15T09:33:20;6.75;;;2.97;;
79574;SDS011;69044;48.198;11.468;2024-01-15T09:35:47;8.27;;;3.63;;
79574;SDS011;69044;48.198;11.468;2024-01-15T09:38:14;6.45;;;3.55;;
79574;SDS011;69044;48.198;11.468;2024-01-15T09:40:44;9.77;;;4.18;;
79574;SDS011;69044;48.198;11.468;2024-01-15T09:43:12;7.05;;;3.50;;
79574;SDS011;69044;48.198;11.468;2024-01-15T09:45:39;5.10;;;2.40;;
79574;SDS011;69044;48.198;11.468;2024-01-15T09:48:07;10.23;;;3.60;;
79574;SDS011;69044;48.198;11.468;2024-01-15T09:50:36;6.82;;;2.97;;
79574;SDS011;69044;48.198;11.468;2024-01-15T09:53:03;7.47;;;2.83;;
79574;SDS011;69044;48.198;11.468;2024-01-15T09:55:32;5.72;;;2.60;;
79574;SDS011;69044;48.198;11.468;2024-01-15T09:58:00;5.75;;;2.97;;
79574;SDS011;69044;48.198;11.468;2024-01-15T10:00:27;5.97;;;2.85;;
79574;SDS011;69044;48.198;11.468;2024-01-15T10:02:55;8.45;;;2.95;;
79574;SDS011;69044;48.198;11.468;2024-01-15T10:05:23;7.63;;;2.92;;
79574;SDS011;69044;48.198;11.468;2024-01-15T10:07:51;4.60;;;2.08;;
79574;SDS011;69044;48.198;11.468;2024-01-15T10:10:20;3.92;;;2.00;;
79574;SDS011;69044;48.198;11.468;2024-01-15T10:12:48;4.30;;;2.10;;
79574;SDS011;69044;48.198;11.468;2024-01-15T10:15:16;6.63;;;2.80;;
79574;SDS011;69044;48.198;11.468;2024-01-15T10:17:43;6.82;;;2.95;;
79574;SDS011;69044;48.198;11.468;2024-01-15T10:20:10;8.13;;;3.17;;
79574;SDS011;69044;48.198;11.468;2024-01-15T10:22:41;3.75;;;2.10;;
79574;SDS011;69044;48.198;11.468;2024-01-15T10:25:13;4.93;;;2.25;;
79574;SDS011;69044;48.198;11.468;2024-01-15T10:27:42;5.20;;;2.60;;
79574;SDS011;69044;48.198;11.468;2024-01-15T10:30:09;5.75;;;2.80;;
79574;SDS011;69044;48.198;11.468;2024-01-15T10:32:39;5.22;;;2.58;;
79574;SDS011;69044;48.198;11.468;2024-01-15T10:35:07;4.45;;;2.47;;
79574;SDS011;69044;48.198;11.468;2024-01-15T10:37:35;5.38;;;2.53;;
79574;SDS011;69044;48.198;11.468;2024-01-15T10:40:02;4.72;;;2.85;;
79574;SDS011;69044;48.198;11.468;2024-01-15T10:42:32;4.05;;;2.00;;
79574;SDS011;69044;48.198;11.468;2024-01-15T10:44:59;5.97;;;2.80;;
79574;SDS011;69044;48.198;11.468;2024-01-15T10:47:27;9.07;;;2.92;;
79574;SDS011;69044;48.198;11.468;2024-01-15T10:49:54;5.85;;;2.63;;
79574;SDS011;69044;48.198;11.468;2024-01-15T10:52:21;6.47;;;3.22;;
79574;SDS011;69044;48.198;11.468;2024-01-15T10:54:49;8.13;;;3.08;;
79574;SDS011;69044;48.198;11.468;2024-01-15T10:57:17;7.30;;;2.97;;
79574;SDS011;69044;48.198;11.468;2024-01-15T10:59:46;8.27;;;3.88;;
79574;SDS011;69044;48.198;11.468;2024-01-15T11:02:13;9.80;;;4.00;;
79574;SDS011;69044;48.198;11.468;2024-01-15T11:04:41;7.20;;;2.63;;
79574;SDS011;69044;48.198;11.468;2024-01-15T11:07:08;7.03;;;2.92;;
79574;SDS011;69044;48.198;11.468;2024-01-15T11:09:37;6.78;;;3.08;;
79574;SDS011;69044;48.198;11.468;2024-01-15T11:12:07;8.13;;;3.28;;
79574;SDS011;69044;48.198;11.468;2024-01-15T11:14:38;5.75;;;2.60;;
79574;SDS011;69044;48.198;11.468;2024-01-15T11:17:08;6.57;;;3.00;;
79574;SDS011;69044;48.198;11.468;2024-01-15T11:19:36;5.80;;;2.45;;
79574;SDS011;69044;48.198;11.468;2024-01-15T11:22:06;5.90;;;3.22;;
79574;SDS011;69044;48.198;11.468;2024-01-15T11:24:35;6.20;;;2.65;;
79574;SDS011;69044;48.198;11.468;2024-01-15T11:27:03;7.88;;;3.05;;
79574;SDS011;69044;48.198;11.468;2024-01-15T11:29:34;4.70;;;2.47;;
79574;SDS011;69044;48.198;11.468;2024-01-15T11:32:03;4.95;;;2.60;;
79574;SDS011;69044;48.198;11.468;2024-01-15T11:34:52;3.97;;;2.17;;
79574;SDS011;69044;48.198;11.468;2024-01-15T11:37:20;6.35;;;2.78;;
79574;SDS011;69044;48.198;11.468;2024-01-15T11:39:50;4.88;;;2.08;;
79574;SDS011;69044;48.198;11.468;2024-01-15T11:42:18;6.20;;;2.47;;
79574;SDS011;69044;48.198;11.468;2024-01-15T11:44:46;6.88;;;2.92;;
79574;SDS011;69044;48.198;11.468;2024-01-15T11:47:13;6.82;;;2.85;;
79574;SDS011;69044;48.198;11.468;2024-01-15T11:49:53;5.75;;;2.70;;
79574;SDS011;69044;48.198;11.468;2024-01-15T11:52:26;4.60;;;2.30;;
79574;SDS011;69044;48.198;11.468;2024-01-15T11:54:55;5.90;;;3.10;;
79574;SDS011;69044;48.198;11.468;2024-01-15T11:57:40;5.80;;;2.85;;
79574;SDS011;69044;48.198;11.468;2024-01-15T12:00:10;7.75;;;2.78;;
79574;SDS011;69044;48.198;11.468;2024-01-15T12:02:41;7.65;;;2.60;;
79574;SDS011;69044;48.198;11.468;2024-01-15T12:05:12;6.75;;;3.10;;
79574;SDS011;69044;48.198;11.468;2024-01-15T12:07:41;5.10;;;2.30;;
79574;SDS011;69044;48.198;11.468;2024-01-15T12:10:09;6.57;;;3.05;;
79574;SDS011;69044;48.198;11.468;2024-01-15T12:15:24;3.92;;;2.17;;
79574;SDS011;69044;48.198;11.468;2024-01-15T12:17:52;4.85;;;2.47;;
79574;SDS011;69044;48.198;11.468;2024-01-15T12:20:20;3.65;;;2.40;;
79574;SDS011;69044;48.198;11.468;2024-01-15T12:22:47;6.85;;;2.63;;
79574;SDS011;69044;48.198;11.468;2024-01-15T12:25:15;3.80;;;2.10;;
79574;SDS011;69044;48.198;11.468;2024-01-15T12:27:42;6.28;;;2.42;;
79574;SDS011;69044;48.198;11.468;2024-01-15T12:30:10;5.45;;;2.28;;
79574;SDS011;69044;48.198;11.468;2024-01-15T12:32:38;5.72;;;2.67;;
79574;SDS011;69044;48.198;11.468;2024-01-15T12:35:07;6.53;;;2.83;;
79574;SDS011;69044;48.198;11.468;2024-01-15T12:37:36;5.15;;;2.45;;
79574;SDS011;69044;48.198;11.468;2024-01-15T12:42:32;4.90;;;2.20;;
79574;SDS011;69044;48.198;11.468;2024-01-15T12:44:59;6.03;;;2.28;;
79574;SDS011;69044;48.198;11.468;2024-01-15T12:47:27;3.42;;;2.10;;
79574;SDS011;69044;48.198;11.468;2024-01-15T12:49:54;5.53;;;2.50;;
79574;SDS011;69044;48.198;11.468;2024-01-15T12:52:21;4.03;;;2.22;;
79574;SDS011;69044;48.198;11.468;2024-01-15T12:54:51;4.03;;;1.90;;
79574;SDS011;69044;48.198;11.468;2024-01-15T12:57:18;3.53;;;1.83;;
79574;SDS011;69044;48.198;11.468;2024-01-15T12:59:45;4.65;;;2.45;;
79574;SDS011;69044;48.198;11.468;2024-01-15T13:02:13;5.13;;;1.92;;
79574;SDS011;69044;48.198;11.468;2024-01-15T13:04:40;3.80;;;2.05;;
79574;SDS011;69044;48.198;11.468;2024-01-15T13:07:07;5.30;;;2.15;;
79574;SDS011;69044;48.198;11.468;2024-01-15T13:09:34;3.50;;;1.92;;
79574;SDS011;69044;48.198;11.468;2024-01-15T13:12:03;4.35;;;2.30;;
79574;SDS011;69044;48.198;11.468;2024-01-15T13:14:32;5.43;;;2.20;;
79574;SDS011;69044;48.198;11.468;2024-01-15T13:16:59;4.45;;;2.20;;
79574;SDS011;69044;48.198;11.468;2024-01-15T13:19:26;4.78;;;1.90;;
79574;SDS011;69044;48.198;11.468;2024-01-15T13:21:54;5.53;;;2.35;;
79574;SDS011;69044;48.198;11.468;2024-01-15T13:24:21;3.88;;;1.80;;
79574;SDS011;69044;48.198;11.468;2024-01-15T13:26:49;6.93;;;2.70;;
79574;SDS011;69044;48.198;11.468;2024-01-15T13:29:17;3.97;;;2.15;;
79574;SDS011;69044;48.198;11.468;2024-01-15T13:34:12;4.03;;;2.15;;
79574;SDS011;69044;48.198;11.468;2024-01-15T13:36:40;8.55;;;3.03;;
79574;SDS011;69044;48.198;11.468;2024-01-15T13:39:07;6.78;;;2.53;;
79574;SDS011;69044;48.198;11.468;2024-01-15T13:41:35;3.72;;;2.10;;
79574;SDS011;69044;48.198;11.468;2024-01-15T13:44:02;5.07;;;2.60;;
79574;SDS011;69044;48.198;11.468;2024-01-15T13:46:30;8.35;;;3.40;;
79574;SDS011;69044;48.198;11.468;2024-01-15T13:48:59;6.68;;;2.53;;
79574;SDS011;69044;48.198;11.468;2024-01-15T13:51:27;5.72;;;2.72;;
79574;SDS011;69044;48.198;11.468;2024-01-15T13:53:55;7.72;;;2.70;;
79574;SDS011;69044;48.198;11.468;2024-01-15T13:56:22;5.57;;;2.60;;
79574;SDS011;69044;48.198;11.468;2024-01-15T13:58:49;4.68;;;2.67;;
79574;SDS011;69044;48.198;11.468;2024-01-15T14:01:17;5.65;;;2.50;;
79574;SDS011;69044;48.198;11.468;2024-01-15T14:03:46;5.72;;;3.25;;
79574;SDS011;69044;48.198;11.468;2024-01-15T14:06:13;7.00;;;3.35;;
79574;SDS011;69044;48.198;11.468;2024-01-15T14:08:40;9.13;;;3.42;;
79574;SDS011;69044;48.198;11.468;2024-01-15T14:11:07;7.28;;;3.25;;
79574;SDS011;69044;48.198;11.468;2024-01-15T14:13:35;7.10;;;3.10;;
79574;SDS011;69044;48.198;11.468;2024-01-15T14:16:03;7.90;;;3.50;;
79574;SDS011;69044;48.198;11.468;2024-01-15T14:18:31;9.38;;;3.28;;
79574;SDS011;69044;48.198;11.468;2024-01-15T14:20:59;8.57;;;3.47;;
79574;SDS011;69044;48.198;11.468;2024-01-15T14:23:26;7.72;;;3.42;;
79574;SDS011;69044;48.198;11.468;2024-01-15T14:25:53;7.00;;;2.40;;
79574;SDS011;69044;48.198;11.468;2024-01-15T14:28:21;8.55;;;2.97;;
79574;SDS011;69044;48.198;11.468;2024-01-15T14:30:49;7.38;;;3.45;;
79574;SDS011;69044;48.198;11.468;2024-01-15T14:33:17;7.80;;;3.30;;
79574;SDS011;69044;48.198;11.468;2024-01-15T14:35:44;6.93;;;2.95;;
79574;SDS011;69044;48.198;11.468;2024-01-15T14:38:12;13.38;;;4.10;;
79574;SDS011;69044;48.198;11.468;2024-01-15T14:40:39;5.50;;;3.20;;
79574;SDS011;69044;48.198;11.468;2024-01-15T14:43:06;8.55;;;2.83;;
79574;SDS011;69044;48.198;11.468;2024-01-15T14:45:34;7.95;;;3.50;;